Time;durP1;ratioP1;P1;durP2;ratioP2;P2;SDS_P1;SDS_P2;PMS_P1;PMS_P2;Temp;Humidity;BMP_temperature;BMP_pressure;BME280_temperature;BME280_humidity;BME280_pressure;Samples;Min_cycle;Max_cycle;Signal;HPM_P1;HPM_P2
2023/05/17 04:01:28;;;;;;;4.10;1.27;;;8.70;99.90;;;;;;5468063;23;20492;-74
2023/05/17 04:03:55;;;;;;;1.00;1.00;;;8.70;99.90;;;;;;4962521;28;20634;-74
2023/05/17 04:06:22;;;;;;;1.02;1.02;;;8.70;99.90;;;;;;4962547;28;20583;-75
2023/05/17 04:08:49;;;;;;;5.97;0.70;;;8.70;99.90;;;;;;4971769;28;20586;-74
2023/05/17 04:11:22;;;;;;;2.05;1.00;;;8.70;99.90;;;;;;4959752;28;20227;-73
2023/05/17 04:16:23;;;;;;;2.20;0.43;;;8.70;99.90;;;;;;4954569;28;20241;-73
2023/05/17 04:18:51;;;;;;;0.98;0.98;;;8.70;99.90;;;;;;4948255;28;20225;-73
2023/05/17 04:21:18;;;;;;;1.20;1.10;;;8.70;99.90;;;;;;4953993;28;20225;-72
2023/05/17 04:23:45;;;;;;;0.60;0.30;;;8.70;99.90;;;;;;4954781;28;20213;-73
2023/05/17 04:26:12;;;;;;;6.35;0.52;;;8.80;99.90;;;;;;4947844;28;20793;-73
2023/05/17 04:28:40;;;;;;;1.83;1.73;;;8.80;99.90;;;;;;4954496;28;20216;-73
2023/05/17 04:31:08;;;;;;;1.10;0.60;;;8.90;99.90;;;;;;4953498;28;20215;-73
2023/05/17 04:33:35;;;;;;;1.75;0.90;;;9.00;99.90;;;;;;4956508;28;20208;-73
2023/05/17 04:36:04;;;;;;;0.73;0.30;;;9.00;99.90;;;;;;4949404;28;20233;-73
2023/05/17 04:38:30;;;;;;;1.33;1.10;;;9.10;99.90;;;;;;4951491;28;20213;-73
2023/05/17 04:41:01;;;;;;;1.33;1.10;;;9.20;99.90;;;;;;4947644;28;20288;-74
2023/05/17 04:43:28;;;;;;;3.80;0.57;;;9.20;99.90;;;;;;4951411;28;20654;-73
2023/05/17 04:45:57;;;;;;;0.90;0.90;;;9.20;99.90;;;;;;4952234;28;20225;-73
2023/05/17 04:48:24;;;;;;;4.97;1.17;;;9.20;99.90;;;;;;4958209;28;20343;-73
2023/05/17 04:50:51;;;;;;;0.60;0.60;;;9.30;99.90;;;;;;4952875;28;20213;-73
2023/05/17 04:53:19;;;;;;;1.38;0.88;;;9.40;99.90;;;;;;4953026;29;20284;-73
2023/05/17 04:55:46;;;;;;;1.52;0.75;;;9.50;99.90;;;;;;4951462;28;20232;-73
2023/05/17 04:58:13;;;;;;;2.15;1.25;;;9.70;99.90;;;;;;4957602;28;20717;-73
2023/05/17 05:00:40;;;;;;;2.72;1.85;;;9.90;99.90;;;;;;4952757;28;20232;-74
2023/05/17 05:03:07;;;;;;;1.85;0.40;;;9.90;99.90;;;;;;4952094;28;20205;-73
2023/05/17 05:05:34;;;;;;;1.98;0.98;;;9.90;99.90;;;;;;4952754;29;20225;-73
2023/05/17 05:08:01;;;;;;;3.22;1.20;;;9.90;99.90;;;;;;4951916;28;20232;-73
2023/05/17 05:10:29;;;;;;;5.68;1.35;;;9.80;99.90;;;;;;4954204;28;20268;-73
2023/05/17 05:12:56;;;;;;;0.52;0.50;;;10.00;99.90;;;;;;4954190;28;20207;-73
2023/05/17 05:15:23;;;;;;;2.30;0.90;;;10.20;99.90;;;;;;4951111;28;20559;-73
2023/05/17 05:17:50;;;;;;;4.03;1.10;;;10.30;99.90;;;;;;4953103;28;20212;-74
2023/05/17 05:20:17;;;;;;;1.75;0.93;;;10.30;99.90;;;;;;4953472;28;20312;-73
2023/05/17 05:22:44;;;;;;;1.42;0.50;;;10.40;99.90;;;;;;4941397;28;20305;-73
2023/05/17 05:25:11;;;;;;;0.70;0.70;;;10.40;99.90;;;;;;4957792;28;20240;-73
2023/05/17 05:27:39;;;;;;;1.27;0.63;;;10.20;99.90;;;;;;4954576;28;20212;-71
2023/05/17 05:30:07;;;;;;;10.93;1.40;;;10.20;99.90;;;;;;4954311;28;20202;-72
2023/05/17 05:32:36;;;;;;;1.45;0.77;;;10.20;99.90;;;;;;4948260;28;20209;-72
2023/05/17 05:35:03;;;;;;;4.78;0.60;;;10.30;99.90;;;;;;4951736;28;20261;-73
2023/05/17 05:37:29;;;;;;;2.85;0.90;;;10.40;99.90;;;;;;4948491;28;20586;-73
2023/05/17 05:39:56;;;;;;;0.63;0.63;;;10.40;99.90;;;;;;4949241;28;20229;-72
2023/05/17 05:42:23;;;;;;;0.77;0.77;;;10.30;99.90;;;;;;4945845;29;20222;-73
2023/05/17 05:44:51;;;;;;;0.30;0.30;;;10.30;99.90;;;;;;4953185;28;20248;-72
2023/05/17 05:47:17;;;;;;;3.30;0.60;;;10.50;99.90;;;;;;4957452;28;20217;-72
2023/05/17 05:49:44;;;;;;;6.38;2.72;;;10.60;99.90;;;;;;4953738;28;20332;-73
2023/05/17 05:52:11;;;;;;;0.57;0.47;;;10.70;99.90;;;;;;4947020;28;20296;-72
2023/05/17 05:54:38;;;;;;;11.13;0.77;;;10.90;99.90;;;;;;4952398;28;20229;-72
2023/05/17 05:57:05;;;;;;;1.27;0.70;;;11.00;99.90;;;;;;4958552;28;20267;-73
2023/05/17 05:59:32;;;;;;;1.05;0.93;;;11.00;99.90;;;;;;4953792;28;20316;-73
2023/05/17 06:02:00;;;;;;;7.40;0.88;;;11.10;99.90;;;;;;4947693;28;20344;-73
2023/05/17 06:04:27;;;;;;;4.57;0.85;;;11.10;99.90;;;;;;4944743;28;20241;-73
2023/05/17 06:06:54;;;;;;;6.43;0.70;;;11.00;99.90;;;;;;4949400;28;20284;-73
2023/05/17 06:09:21;;;;;;;0.98;0.45;;;11.00;99.90;;;;;;4952677;28;20233;-73
2023/05/17 06:11:48;;;;;;;1.27;1.20;;;11.00;99.90;;;;;;4934803;29;20677;-72
2023/05/17 06:14:14;;;;;;;1.67;0.73;;;11.00;99.90;;;;;;4946844;29;20240;-73
2023/05/17 06:16:41;;;;;;;1.00;0.60;;;10.90;99.90;;;;;;4952628;28;20208;-73
2023/05/17 06:19:09;;;;;;;0.60;0.60;;;10.80;99.90;;;;;;4949918;28;20225;-72
2023/05/17 06:21:36;;;;;;;5.90;1.05;;;10.70;99.90;;;;;;4951387;29;20221;-73
2023/05/17 06:24:03;;;;;;;4.78;1.63;;;10.60;99.90;;;;;;4951293;28;20209;-73
2023/05/17 06:26:30;;;;;;;12.38;1.08;;;10.60;99.90;;;;;;4950435;28;20213;-72
2023/05/17 06:28:57;;;;;;;1.20;0.50;;;10.50;99.90;;;;;;4952480;28;20236;-73
2023/05/17 06:31:23;;;;;;;2.80;0.50;;;10.50;99.90;;;;;;4948150;28;20209;-73
2023/05/17 06:33:50;;;;;;;2.05;0.70;;;10.60;99.90;;;;;;4946108;28;20212;-73
2023/05/17 06:36:18;;;;;;;0.95;0.52;;;10.80;99.90;;;;;;4953787;28;20296;-72
2023/05/17 06:38:45;;;;;;;0.35;0.35;;;10.80;99.90;;;;;;4952393;28;20820;-71
2023/05/17 06:41:11;;;;;;;0.60;0.60;;;11.40;99.90;;;;;;4945047;28;20233;-72
2023/05/17 06:43:38;;;;;;;1.43;0.83;;;12.40;99.90;;;;;;4950693;28;20275;-71
2023/05/17 06:46:05;;;;;;;0.73;0.73;;;12.90;99.90;;;;;;4949797;28;20702;-72
2023/05/17 06:48:31;;;;;;;1.53;1.10;;;13.20;99.90;;;;;;4951382;28;20469;-73
2023/05/17 06:50:58;;;;;;;2.83;1.47;;;13.10;99.90;;;;;;4943648;28;20814;-73
2023/05/17 06:53:27;;;;;;;7.30;0.53;;;12.80;99.90;;;;;;4936069;29;20484;-72
2023/05/17 06:55:53;;;;;;;1.17;0.40;;;12.50;99.90;;;;;;4946449;28;20671;-71
2023/05/17 06:58:20;;;;;;;0.50;0.50;;;12.50;99.90;;;;;;4952984;29;20844;-72
2023/05/17 07:00:47;;;;;;;1.50;0.50;;;12.30;99.90;;;;;;4940850;28;20480;-72
2023/05/17 07:03:13;;;;;;;2.53;0.53;;;12.20;99.90;;;;;;4949069;28;20480;-72
2023/05/17 07:05:40;;;;;;;0.10;0.10;;;11.90;99.90;;;;;;4947184;28;20576;-72
2023/05/17 07:08:07;;;;;;;2.17;0.57;;;11.60;99.90;;;;;;4948973;28;20228;-72
2023/05/17 07:10:35;;;;;;;0.63;0.57;;;11.50;99.90;;;;;;4955254;28;20205;-72
2023/05/17 07:13:02;;;;;;;0.75;0.75;;;11.60;99.90;;;;;;4948297;28;20300;-71
2023/05/17 07:15:28;;;;;;;0.90;0.30;;;11.40;99.90;;;;;;4944576;28;20729;-72
2023/05/17 07:17:55;;;;;;;0.90;0.82;;;11.30;99.90;;;;;;4953626;28;20237;-71
2023/05/17 07:20:22;;;;;;;6.53;0.40;;;11.40;99.90;;;;;;4953144;28;20225;-71
2023/05/17 07:22:49;;;;;;;0.65;0.65;;;11.20;99.90;;;;;;4950477;28;20241;-72
2023/05/17 07:25:17;;;;;;;0.35;0.35;;;11.30;99.90;;;;;;4953173;28;20239;-72
2023/05/17 07:27:45;;;;;;;1.23;1.23;;;11.80;99.90;;;;;;4945681;28;20217;-72
2023/05/17 07:30:13;;;;;;;1.10;0.47;;;12.60;99.90;;;;;;4947906;29;20464;-72
2023/05/17 07:32:39;;;;;;;0.30;0.30;;;13.50;99.90;;;;;;4941903;28;20515;-72
2023/05/17 07:35:06;;;;;;;0.40;0.40;;;14.50;99.90;;;;;;4950759;28;20495;-72
2023/05/17 07:37:33;;;;;;;0.30;0.30;;;13.90;99.90;;;;;;4950236;28;20472;-72
2023/05/17 07:40:00;;;;;;;0.50;0.50;;;13.40;99.90;;;;;;4945330;28;20489;-72
2023/05/17 07:42:27;;;;;;;0.20;0.20;;;12.60;99.90;;;;;;4939938;28;20479;-72
2023/05/17 07:44:55;;;;;;;5.38;1.50;;;12.10;99.90;;;;;;4949269;28;20531;-72
2023/05/17 07:47:21;;;;;;;4.88;0.82;;;11.80;99.90;;;;;;4945388;28;20210;-72
2023/05/17 07:49:48;;;;;;;0.70;0.70;;;11.80;99.90;;;;;;4950982;28;20611;-72
2023/05/17 07:52:15;;;;;;;0.63;0.43;;;11.80;99.90;;;;;;4950670;28;20217;-72
2023/05/17 07:54:41;;;;;;;0.35;0.35;;;11.80;99.90;;;;;;4952085;28;20245;-72
2023/05/17 07:57:08;;;;;;;0.60;0.60;;;11.70;99.90;;;;;;4949200;28;20265;-72
2023/05/17 07:59:35;;;;;;;0.90;0.82;;;11.90;99.90;;;;;;4948708;28;20244;-73
2023/05/17 08:02:03;;;;;;;1.20;1.10;;;12.00;99.90;;;;;;4941423;28;20276;-73
2023/05/17 08:04:30;;;;;;;1.33;0.90;;;12.40;99.90;;;;;;4940073;29;20248;-72
2023/05/17 08:06:57;;;;;;;0.40;0.40;;;12.70;99.90;;;;;;4949487;28;20208;-73
2023/05/17 08:09:23;;;;;;;1.73;0.83;;;12.50;99.90;;;;;;4948815;29;20552;-71
2023/05/17 08:11:50;;;;;;;0.87;0.70;;;12.30;99.90;;;;;;4952354;28;20476;-73
2023/05/17 08:14:17;;;;;;;0.30;0.30;;;12.60;99.90;;;;;;4952121;28;20519;-72
2023/05/17 08:16:46;;;;;;;0.20;0.20;;;12.70;99.90;;;;;;4952101;28;20460;-72
2023/05/17 08:19:15;;;;;;;1.70;0.77;;;12.90;99.90;;;;;;4952066;28;20832;-72
2023/05/17 08:21:42;;;;;;;4.43;0.60;;;12.90;99.90;;;;;;4950953;28;20504;-72
2023/05/17 08:24:10;;;;;;;1.80;0.87;;;12.60;99.90;;;;;;4952632;28;20475;-72
2023/05/17 08:26:37;;;;;;;2.10;1.17;;;12.70;99.90;;;;;;4960377;28;20491;-72
2023/05/17 08:29:04;;;;;;;0.40;0.40;;;12.90;99.90;;;;;;4953211;28;20543;-72
2023/05/17 08:31:31;;;;;;;3.23;0.60;;;13.00;99.50;;;;;;4951608;28;20469;-72
2023/05/17 08:33:57;;;;;;;0.80;0.80;;;12.90;99.80;;;;;;4956643;28;20472;-72
2023/05/17 08:36:27;;;;;;;2.00;0.63;;;12.70;99.90;;;;;;4951959;28;20476;-72
2023/05/17 08:38:53;;;;;;;0.20;0.20;;;12.50;99.90;;;;;;4952613;28;20472;-72
2023/05/17 08:41:23;;;;;;;0.32;0.30;;;12.40;99.90;;;;;;4952488;28;20497;-72
2023/05/17 08:43:50;;;;;;;0.38;0.38;;;12.40;99.90;;;;;;4946831;29;20237;-72
2023/05/17 08:46:20;;;;;;;0.70;0.70;;;12.30;99.90;;;;;;4974223;28;20239;-71
2023/05/17 08:48:50;;;;;;;1.93;1.83;;;12.60;99.90;;;;;;4952167;28;20201;-72
2023/05/17 08:51:19;;;;;;;1.50;0.43;;;12.80;99.90;;;;;;4949000;28;20472;-71
2023/05/17 08:53:49;;;;;;;0.20;0.20;;;13.10;99.90;;;;;;4951340;28;20590;-71
2023/05/17 08:56:17;;;;;;;0.93;0.50;;;13.20;99.50;;;;;;4966247;28;20495;-71
2023/05/17 08:58:47;;;;;;;1.20;0.73;;;13.10;99.60;;;;;;4954922;28;20520;-72
2023/05/17 09:01:14;;;;;;;3.23;1.27;;;13.30;99.40;;;;;;4953379;28;20484;-72
2023/05/17 09:03:47;;;;;;;0.20;0.20;;;13.20;99.90;;;;;;4946820;28;20500;-71
2023/05/17 09:06:14;;;;;;;0.30;0.30;;;13.20;99.90;;;;;;4953200;28;20543;-71
2023/05/17 09:08:43;;;;;;;0.70;0.70;;;13.10;99.90;;;;;;4954298;28;20472;-71
2023/05/17 09:11:11;;;;;;;0.63;0.40;;;13.10;99.90;;;;;;4953438;28;20468;-71
2023/05/17 09:13:38;;;;;;;1.23;0.43;;;13.20;99.90;;;;;;4953702;28;20841;-71
2023/05/17 09:16:14;;;;;;;1.50;0.87;;;13.40;99.90;;;;;;4947239;28;20997;-71
2023/05/17 09:18:41;;;;;;;0.20;0.20;;;13.20;99.90;;;;;;4950329;29;20476;-71
2023/05/17 09:21:09;;;;;;;2.77;0.53;;;13.20;99.90;;;;;;4950314;28;20480;-72
2023/05/17 09:23:38;;;;;;;4.30;1.17;;;13.20;99.90;;;;;;4953632;29;20476;-72
2023/05/17 09:26:06;;;;;;;2.47;0.43;;;13.10;99.90;;;;;;4959400;28;20502;-72
2023/05/17 09:28:39;;;;;;;10.80;1.10;;;13.10;99.90;;;;;;4959865;28;20475;-72
2023/05/17 09:31:07;;;;;;;2.00;0.70;;;13.10;99.90;;;;;;4954935;28;20457;-72
2023/05/17 09:33:34;;;;;;;2.10;1.13;;;13.10;99.90;;;;;;4949455;28;20560;-72
2023/05/17 09:36:01;;;;;;;3.40;1.27;;;13.20;99.90;;;;;;4952995;29;20508;-73
2023/05/17 09:38:28;;;;;;;0.30;0.30;;;13.30;99.90;;;;;;4950384;28;20527;-72
2023/05/17 09:40:55;;;;;;;0.87;0.87;;;13.30;99.90;;;;;;4951759;28;21011;-72
2023/05/17 09:43:24;;;;;;;2.50;1.43;;;13.00;99.90;;;;;;4950808;28;20484;-72
2023/05/17 09:45:57;;;;;;;14.47;1.13;;;12.70;99.90;;;;;;4935302;29;20561;-72
2023/05/17 09:48:26;;;;;;;0.40;0.40;;;12.80;99.90;;;;;;4953985;29;20473;-72
2023/05/17 09:50:54;;;;;;;0.60;0.60;;;12.90;99.90;;;;;;4950470;28;20208;-72
2023/05/17 09:53:28;;;;;;;5.30;0.67;;;13.10;99.90;;;;;;4951694;28;20867;-72
2023/05/17 09:55:57;;;;;;;0.50;0.40;;;13.40;99.90;;;;;;4952749;28;20489;-72
2023/05/17 09:58:24;;;;;;;0.57;0.50;;;13.60;99.90;;;;;;4954352;28;20460;-72
2023/05/17 10:00:53;;;;;;;0.97;0.50;;;13.80;99.90;;;;;;4953747;28;20967;-72
2023/05/17 10:03:22;;;;;;;0.70;0.70;;;13.90;98.90;;;;;;4952225;28;20499;-72
2023/05/17 10:05:52;;;;;;;2.73;0.87;;;13.80;99.30;;;;;;4950830;28;20484;-73
2023/05/17 10:08:24;;;;;;;3.30;0.80;;;13.80;99.90;;;;;;4953724;28;20946;-72
2023/05/17 10:10:54;;;;;;;6.40;0.87;;;13.60;99.90;;;;;;4953739;28;20469;-73
2023/05/17 10:13:24;;;;;;;0.50;0.50;;;13.50;99.90;;;;;;4937486;29;20472;-71
2023/05/17 10:15:53;;;;;;;2.67;1.30;;;13.50;99.90;;;;;;4946345;28;21000;-70
2023/05/17 10:18:21;;;;;;;0.73;0.73;;;13.70;99.90;;;;;;4950623;29;20469;-70
2023/05/17 10:20:50;;;;;;;0.20;0.20;;;13.80;99.90;;;;;;4963017;23;20504;-72
2023/05/17 10:23:18;;;;;;;1.03;0.30;;;13.90;99.90;;;;;;4970892;28;20948;-73
2023/05/17 10:25:45;;;;;;;2.83;0.50;;;13.80;99.90;;;;;;4971218;28;20480;-73
2023/05/17 10:28:14;;;;;;;0.47;0.33;;;14.00;99.90;;;;;;4965110;28;20802;-73
2023/05/17 10:30:42;;;;;;;0.40;0.40;;;14.20;99.90;;;;;;4958587;28;20600;-73
2023/05/17 10:33:10;;;;;;;0.73;0.73;;;14.30;99.90;;;;;;4953671;28;20465;-73
2023/05/17 10:35:40;;;;;;;0.50;0.50;;;14.20;99.90;;;;;;4952131;28;20469;-73
2023/05/17 10:38:07;;;;;;;0.40;0.40;;;13.90;99.90;;;;;;4952475;29;20457;-73
2023/05/17 10:40:35;;;;;;;1.80;0.67;;;13.70;99.90;;;;;;4950283;29;21147;-72
2023/05/17 10:43:05;;;;;;;2.43;0.67;;;13.70;99.90;;;;;;4952285;29;20464;-73
2023/05/17 10:45:31;;;;;;;0.40;0.30;;;13.90;99.90;;;;;;4952285;29;20476;-72
2023/05/17 10:48:04;;;;;;;6.50;0.60;;;13.80;99.90;;;;;;4951992;29;20469;-73
2023/05/17 10:50:31;;;;;;;0.53;0.53;;;13.50;99.90;;;;;;4950318;28;20492;-73
2023/05/17 10:52:59;;;;;;;0.40;0.40;;;13.30;99.80;;;;;;4952615;28;20471;-73
2023/05/17 10:55:38;;;;;;;0.90;0.90;;;13.50;99.90;;;;;;4952264;29;20563;-73
2023/05/17 10:58:16;;;;;;;2.50;0.80;;;13.90;99.90;;;;;;4943226;29;20499;-74
2023/05/17 11:00:45;;;;;;;3.20;0.80;;;14.20;99.90;;;;;;4953150;28;21107;-74
2023/05/17 11:03:15;;;;;;;0.40;0.40;;;14.40;99.50;;;;;;4947596;28;20480;-72
2023/05/17 11:05:44;;;;;;;0.57;0.40;;;14.30;99.90;;;;;;4952502;28;20472;-73
2023/05/17 11:08:16;;;;;;;0.50;0.50;;;14.40;99.90;;;;;;4945247;29;20472;-73
2023/05/17 11:11:09;;;;;;;0.97;0.97;;;14.00;99.90;;;;;;4953721;28;20492;-72
2023/05/17 11:13:52;;;;;;;0.63;0.63;;;13.80;99.90;;;;;;4953068;28;20507;-73
2023/05/17 11:16:22;;;;;;;3.23;0.73;;;13.60;99.40;;;;;;4953077;29;20724;-74
2023/05/17 11:18:50;;;;;;;0.30;0.30;;;13.60;99.90;;;;;;4945584;29;20468;-73
2023/05/17 11:21:17;;;;;;;1.90;1.63;;;13.60;99.90;;;;;;4951495;28;20502;-73
2023/05/17 11:23:46;;;;;;;13.13;1.40;;;13.50;99.90;;;;;;4953549;28;20473;-74
2023/05/17 11:26:17;;;;;;;5.30;0.93;;;13.60;99.90;;;;;;4953986;29;20475;-74
2023/05/17 11:28:44;;;;;;;1.23;0.93;;;13.60;99.40;;;;;;4954303;28;20528;-73
2023/05/17 11:31:11;;;;;;;0.93;0.83;;;13.70;99.40;;;;;;4951945;29;21005;-73
2023/05/17 11:33:40;;;;;;;3.83;0.87;;;13.80;99.30;;;;;;4948881;29;20575;-72
2023/05/17 11:36:18;;;;;;;0.53;0.53;;;14.00;99.90;;;;;;4952338;28;20469;-74
2023/05/17 11:38:48;;;;;;;1.80;0.40;;;13.90;98.90;;;;;;4954014;29;20523;-74
2023/05/17 11:41:20;;;;;;;0.63;0.63;;;13.70;97.20;;;;;;4953277;28;20752;-73
2023/05/17 11:43:48;;;;;;;0.80;0.73;;;13.60;97.70;;;;;;4952967;28;20479;-73
2023/05/17 11:46:22;;;;;;;5.73;1.53;;;13.70;98.40;;;;;;4950673;29;20555;-72
2023/05/17 11:48:51;;;;;;;1.80;0.80;;;14.00;98.00;;;;;;4949695;29;20631;-73
2023/05/17 11:51:19;;;;;;;4.93;0.63;;;14.30;98.20;;;;;;4953818;29;20536;-73
2023/05/17 11:53:48;;;;;;;0.53;0.53;;;14.40;97.20;;;;;;4952781;28;20934;-72
2023/05/17 11:56:15;;;;;;;0.20;0.20;;;14.60;97.20;;;;;;4952916;29;20469;-73
2023/05/17 11:58:43;;;;;;;0.63;0.63;;;14.60;97.50;;;;;;4953371;29;20465;-73
2023/05/17 12:01:09;;;;;;;0.63;0.50;;;14.60;97.20;;;;;;4953545;28;20495;-70
2023/05/17 12:03:36;;;;;;;0.30;0.30;;;14.70;97.30;;;;;;4951092;28;20840;-74
2023/05/17 12:06:05;;;;;;;1.03;0.40;;;14.70;97.30;;;;;;4950175;28;20789;-72
2023/05/17 12:08:33;;;;;;;0.70;0.60;;;14.80;97.10;;;;;;4952394;28;20477;-72
2023/05/17 12:11:02;;;;;;;1.43;0.70;;;14.80;97.30;;;;;;4951600;28;20711;-71
2023/05/17 12:13:29;;;;;;;0.93;0.90;;;14.50;97.20;;;;;;4950656;28;20909;-73
2023/05/17 12:15:58;;;;;;;1.23;0.40;;;14.20;98.30;;;;;;4951869;28;20594;-72
2023/05/17 12:18:37;;;;;;;0.60;0.60;;;14.10;98.80;;;;;;4944118;28;20465;-74
2023/05/17 12:21:04;;;;;;;0.60;0.60;;;13.80;98.30;;;;;;4945485;28;20530;-73
2023/05/17 12:23:32;;;;;;;0.63;0.63;;;13.80;98.30;;;;;;4949845;29;20472;-72
2023/05/17 12:26:08;;;;;;;0.40;0.40;;;13.60;98.70;;;;;;4946243;29;20504;-72
2023/05/17 12:28:36;;;;;;;2.10;0.90;;;13.60;99.10;;;;;;4952197;28;20551;-74
2023/05/17 12:31:05;;;;;;;0.47;0.47;;;13.70;99.50;;;;;;4955095;28;20488;-73
2023/05/17 12:33:34;;;;;;;0.80;0.80;;;13.80;99.70;;;;;;4954451;28;20465;-74
2023/05/17 12:36:02;;;;;;;0.40;0.40;;;13.80;99.70;;;;;;4954450;28;20468;-73
2023/05/17 12:38:32;;;;;;;0.30;0.30;;;13.60;97.90;;;;;;4956141;28;20496;-72
2023/05/17 12:41:00;;;;;;;0.40;0.40;;;13.60;98.30;;;;;;4954133;28;20896;-73
2023/05/17 12:43:30;;;;;;;0.40;0.40;;;13.80;98.80;;;;;;4954268;28;20472;-72
2023/05/17 12:46:03;;;;;;;0.60;0.60;;;14.10;98.90;;;;;;4954615;28;20500;-72
2023/05/17 12:48:31;;;;;;;0.43;0.33;;;14.40;98.50;;;;;;4955409;29;20547;-72
2023/05/17 12:50:57;;;;;;;6.43;0.47;;;14.30;98.40;;;;;;4954315;28;20492;-72
2023/05/17 12:53:34;;;;;;;1.90;0.33;;;14.10;98.80;;;;;;4958673;28;20484;-72
2023/05/17 12:56:00;;;;;;;0.20;0.20;;;14.30;99.90;;;;;;4953407;29;20526;-72
2023/05/17 12:58:28;;;;;;;0.33;0.30;;;14.10;99.90;;;;;;4955952;28;20468;-72
2023/05/17 13:01:02;;;;;;;0.67;0.67;;;13.90;99.90;;;;;;4954758;28;20488;-72
2023/05/17 13:03:30;;;;;;;12.73;2.43;;;14.00;99.90;;;;;;4950866;28;20475;-73
2023/05/17 13:06:04;;;;;;;0.40;0.40;;;14.30;99.90;;;;;;4952684;28;20477;-71
2023/05/17 13:08:32;;;;;;;0.53;0.43;;;14.60;99.90;;;;;;4954506;28;20495;-72
2023/05/17 13:11:10;;;;;;;2.10;1.17;;;14.50;98.30;;;;;;4954465;28;20524;-72
2023/05/17 13:13:38;;;;;;;0.53;0.40;;;14.40;99.00;;;;;;4953867;28;21262;-73
2023/05/17 13:16:06;;;;;;;0.40;0.40;;;14.20;98.50;;;;;;4955059;28;20539;-72
2023/05/17 13:18:47;;;;;;;0.57;0.57;;;14.00;98.40;;;;;;4955285;29;20551;-72
2023/05/17 13:21:14;;;;;;;3.30;0.83;;;14.10;98.80;;;;;;4953038;28;20504;-72
2023/05/17 13:23:43;;;;;;;0.40;0.40;;;14.30;99.30;;;;;;4954450;28;20469;-73
2023/05/17 13:26:11;;;;;;;0.77;0.30;;;14.40;99.90;;;;;;4953358;29;20507;-72
2023/05/17 13:28:40;;;;;;;0.80;0.80;;;14.20;99.40;;;;;;4958804;29;20524;-72
2023/05/17 13:31:07;;;;;;;0.97;0.97;;;14.10;99.90;;;;;;4957723;28;20488;-72
2023/05/17 13:33:33;;;;;;;0.87;0.30;;;14.10;98.90;;;;;;4955316;29;20503;-73
2023/05/17 13:36:00;;;;;;;0.67;0.67;;;14.10;98.50;;;;;;4956628;29;20460;-73
2023/05/17 13:38:27;;;;;;;0.37;0.37;;;14.10;97.90;;;;;;4952733;29;20515;-73
2023/05/17 13:40:54;;;;;;;0.63;0.63;;;14.30;98.60;;;;;;4954280;28;20495;-73
2023/05/17 13:43:21;;;;;;;1.30;0.60;;;14.20;98.20;;;;;;4953809;29;20488;-73
2023/05/17 13:45:53;;;;;;;0.67;0.40;;;14.00;98.10;;;;;;4958387;28;20496;-73
2023/05/17 13:48:20;;;;;;;0.57;0.43;;;14.00;98.40;;;;;;4956887;29;20634;-73
2023/05/17 13:50:47;;;;;;;0.83;0.83;;;14.10;97.90;;;;;;4957542;28;20493;-73
2023/05/17 13:53:13;;;;;;;0.80;0.73;;;14.30;98.80;;;;;;4953961;28;20480;-73
2023/05/17 13:55:40;;;;;;;1.90;0.53;;;14.20;99.90;;;;;;4954881;28;20461;-72
2023/05/17 13:58:07;;;;;;;5.87;1.17;;;14.10;99.90;;;;;;4954957;28;20531;-73
2023/05/17 14:00:33;;;;;;;2.20;0.90;;;14.20;99.90;;;;;;4954927;28;20492;-73
2023/05/17 14:03:01;;;;;;;1.00;1.00;;;14.00;99.90;;;;;;4954385;28;20489;-74
2023/05/17 14:05:30;;;;;;;1.30;0.47;;;14.00;99.90;;;;;;4956862;28;20464;-74
2023/05/17 14:07:56;;;;;;;0.30;0.30;;;14.10;99.90;;;;;;4956924;29;20536;-74
2023/05/17 14:10:23;;;;;;;0.87;0.87;;;14.40;99.90;;;;;;4954862;28;20469;-73
2023/05/17 14:12:50;;;;;;;1.80;0.53;;;14.80;98.30;;;;;;4956436;28;20842;-73
2023/05/17 14:15:17;;;;;;;0.60;0.60;;;15.00;97.10;;;;;;4958224;29;20468;-74
2023/05/17 14:17:43;;;;;;;0.50;0.50;;;14.90;96.90;;;;;;4961550;29;20473;-73
2023/05/17 14:20:13;;;;;;;0.67;0.67;;;14.90;97.20;;;;;;4960482;28;20471;-73
2023/05/17 14:22:40;;;;;;;0.77;0.77;;;14.70;97.00;;;;;;4952333;28;20540;-72
2023/05/17 14:25:10;;;;;;;1.23;0.80;;;14.70;97.90;;;;;;4950807;29;20457;-75
2023/05/17 14:27:37;;;;;;;1.50;1.23;;;14.60;97.90;;;;;;4949313;29;20472;-72
2023/05/17 14:30:04;;;;;;;2.83;1.10;;;14.70;98.60;;;;;;4949202;28;20496;-73
2023/05/17 14:32:31;;;;;;;5.50;0.60;;;14.80;98.90;;;;;;4951068;28;20485;-72
2023/05/17 14:34:57;;;;;;;1.03;0.90;;;14.70;99.60;;;;;;4951908;28;20579;-72
2023/05/17 14:37:25;;;;;;;0.70;0.70;;;14.60;99.50;;;;;;4951006;28;20468;-72
2023/05/17 14:39:52;;;;;;;0.73;0.60;;;14.40;99.60;;;;;;4951236;28;20477;-72
2023/05/17 14:42:19;;;;;;;0.30;0.30;;;14.10;99.50;;;;;;4951241;28;20497;-72
2023/05/17 14:44:45;;;;;;;0.70;0.70;;;14.00;99.90;;;;;;4951851;28;20472;-72
2023/05/17 14:47:12;;;;;;;2.70;0.60;;;14.00;99.80;;;;;;4952598;29;20479;-73
2023/05/17 14:49:39;;;;;;;1.60;1.10;;;14.10;99.40;;;;;;4944811;28;20580;-73
2023/05/17 14:52:06;;;;;;;0.50;0.50;;;14.50;99.80;;;;;;4950565;28;20940;-73
2023/05/17 14:54:34;;;;;;;6.10;0.60;;;14.70;98.20;;;;;;4951965;28;20480;-73
2023/05/17 14:57:02;;;;;;;1.20;1.10;;;15.00;98.40;;;;;;4952213;28;20471;-70
2023/05/17 14:59:28;;;;;;;0.50;0.50;;;15.00;98.00;;;;;;4951838;29;20495;-70
2023/05/17 15:01:55;;;;;;;0.53;0.53;;;15.00;97.10;;;;;;4950524;28;20799;-70
2023/05/17 15:04:22;;;;;;;0.30;0.30;;;15.00;96.50;;;;;;4952584;29;20527;-71
2023/05/17 15:06:49;;;;;;;2.83;0.60;;;14.70;97.20;;;;;;4951589;28;20469;-70
2023/05/17 15:09:17;;;;;;;0.57;0.57;;;14.40;98.10;;;;;;4943661;28;20475;-71
2023/05/17 15:11:45;;;;;;;0.50;0.50;;;14.30;98.70;;;;;;4951423;28;21043;-72
2023/05/17 15:14:12;;;;;;;0.53;0.53;;;14.20;99.30;;;;;;4950415;29;20469;-73
2023/05/17 15:16:39;;;;;;;1.20;0.93;;;14.40;99.40;;;;;;4947494;28;20491;-71
2023/05/17 15:19:06;;;;;;;1.43;1.30;;;14.50;99.90;;;;;;4952692;28;20473;-71
2023/05/17 15:21:33;;;;;;;0.40;0.40;;;14.40;99.90;;;;;;4948053;29;20829;-74
2023/05/17 15:24:00;;;;;;;0.40;0.40;;;14.50;99.90;;;;;;4952294;29;20484;-74
2023/05/17 15:26:26;;;;;;;0.80;0.80;;;14.50;99.90;;;;;;4952852;28;20881;-74
2023/05/17 15:28:55;;;;;;;2.17;0.50;;;14.10;99.90;;;;;;4952727;29;20480;-74
2023/05/17 15:31:23;;;;;;;0.73;0.73;;;13.80;99.90;;;;;;4946169;28;20496;-74
2023/05/17 15:33:49;;;;;;;1.00;1.00;;;13.70;99.90;;;;;;4948421;29;20472;-74
2023/05/17 15:36:17;;;;;;;0.77;0.77;;;13.70;99.90;;;;;;4951820;28;20464;-74
2023/05/17 15:38:43;;;;;;;4.03;1.60;;;13.70;99.90;;;;;;4951660;29;20480;-74
2023/05/17 15:41:13;;;;;;;0.80;0.80;;;13.90;99.90;;;;;;4952505;28;20490;-72
2023/05/17 15:43:40;;;;;;;1.67;1.17;;;14.00;99.70;;;;;;4942261;29;20516;-74
2023/05/17 15:46:08;;;;;;;2.77;1.33;;;13.90;99.20;;;;;;4945748;28;20469;-75
2023/05/17 15:48:35;;;;;;;0.60;0.60;;;14.00;99.70;;;;;;4950425;29;20476;-74
2023/05/17 15:51:02;;;;;;;0.43;0.43;;;14.10;99.40;;;;;;4951175;28;20481;-73
2023/05/17 15:53:30;;;;;;;0.70;0.57;;;14.00;98.60;;;;;;4943477;28;20465;-73
2023/05/17 15:55:57;;;;;;;1.80;0.77;;;14.00;98.90;;;;;;4951802;29;20512;-73
2023/05/17 15:58:26;;;;;;;0.83;0.83;;;14.20;98.80;;;;;;4951901;28;20489;-74
2023/05/17 16:00:53;;;;;;;1.03;1.03;;;14.10;98.70;;;;;;4951393;28;20559;-74
2023/05/17 16:03:21;;;;;;;0.77;0.77;;;13.60;98.80;;;;;;4949940;28;20484;-73
2023/05/17 16:05:48;;;;;;;2.20;2.10;;;13.40;99.80;;;;;;4955263;28;20515;-74
2023/05/17 16:08:15;;;;;;;2.97;1.63;;;13.40;99.90;;;;;;4954469;28;20471;-73
2023/05/17 16:10:41;;;;;;;1.23;0.53;;;13.40;99.90;;;;;;4956083;28;20511;-74
2023/05/17 16:13:08;;;;;;;1.47;1.23;;;13.50;99.90;;;;;;4954453;28;20480;-74
2023/05/17 16:15:35;;;;;;;1.10;1.02;;;13.50;99.90;;;;;;4955069;28;20465;-73
2023/05/17 16:18:02;;;;;;;0.57;0.57;;;13.40;99.90;;;;;;4949819;28;20592;-73
2023/05/17 16:20:30;;;;;;;1.70;0.40;;;13.60;99.90;;;;;;4954631;29;20593;-73
2023/05/17 16:25:25;;;;;;;0.70;0.70;;;13.40;99.90;;;;;;4909131;29;20551;-72
2023/05/17 16:27:52;;;;;;;1.27;0.60;;;13.50;99.90;;;;;;4909182;29;20474;-72
2023/05/17 16:30:19;;;;;;;0.43;0.43;;;13.50;99.90;;;;;;4902606;29;20486;-72
2023/05/17 16:32:46;;;;;;;0.93;0.73;;;13.40;99.90;;;;;;4910273;29;20832;-72
2023/05/17 16:35:13;;;;;;;3.87;1.30;;;13.40;99.90;;;;;;4909701;29;20741;-73
2023/05/17 16:37:42;;;;;;;1.20;0.90;;;13.30;99.90;;;;;;4914237;29;20582;-72
2023/05/17 16:40:09;;;;;;;1.95;1.02;;;13.30;99.90;;;;;;4911182;29;20235;-72
2023/05/17 16:42:36;;;;;;;0.70;0.70;;;13.40;99.90;;;;;;4916254;29;20235;-72
2023/05/17 16:45:03;;;;;;;1.25;1.25;;;13.10;99.90;;;;;;4913514;29;20490;-72
2023/05/17 16:47:30;;;;;;;2.58;1.63;;;13.00;99.90;;;;;;4912155;29;20266;-72
2023/05/17 16:49:57;;;;;;;1.20;1.13;;;13.00;99.90;;;;;;4913922;29;20658;-72
2023/05/17 16:52:24;;;;;;;3.00;1.63;;;13.00;99.90;;;;;;4911692;29;20473;-72
2023/05/17 16:54:52;;;;;;;1.70;1.23;;;12.90;99.90;;;;;;4910050;29;20906;-72
2023/05/17 16:57:19;;;;;;;0.70;0.70;;;12.90;99.90;;;;;;4916131;29;20488;-72